Time;durP1;ratioP1;P1;durP2;ratioP2;P2;SDS_P1;SDS_P2;PMS_P1;PMS_P2;Temp;Humidity;BMP_temperature;BMP_pressure;BME280_temperature;BME280_humidity;BME280_pressure;Samples;Min_cycle;Max_cycle;Signal;HPM_P1;HPM_P2
2023/10/06 00:01:40;;;;;;;2.08;1.20;;;15.40;82.60;;;;;;4973193;28;20133;-16
2023/10/06 00:04:07;;;;;;;1.67;1.00;;;15.40;82.70;;;;;;4991085;28;20018;-16
2023/10/06 00:06:42;;;;;;;2.30;1.10;;;15.40;82.70;;;;;;4965285;28;20049;-16
2023/10/06 00:09:30;;;;;;;2.20;0.90;;;15.40;83.10;;;;;;4970626;28;20563;-16
2023/10/06 00:11:56;;;;;;;1.40;0.80;;;15.40;83.40;;;;;;4990496;28;20240;-16
2023/10/06 00:14:38;;;;;;;2.05;1.00;;;15.40;82.70;;;;;;4977394;28;20037;-17
2023/10/06 00:17:13;;;;;;;1.60;1.00;;;15.40;82.70;;;;;;4983065;28;20061;-17
2023/10/06 00:19:40;;;;;;;1.90;1.10;;;15.30;83.10;;;;;;5006899;28;20393;-18
2023/10/06 00:24:37;;;;;;;2.22;1.13;;;15.80;87.20;;;;;;4974712;28;20025;-19
2023/10/06 00:27:03;;;;;;;3.80;1.20;;;15.20;82.90;;;;;;4988565;28;20519;-17
2023/10/06 00:29:30;;;;;;;1.50;0.90;;;15.20;83.00;;;;;;5012427;28;20083;-17
2023/10/06 00:32:05;;;;;;;1.52;0.95;;;15.20;83.00;;;;;;4988564;28;21011;-17
2023/10/06 00:34:34;;;;;;;2.20;1.00;;;15.20;83.10;;;;;;4979133;28;20046;-17
2023/10/06 00:37:02;;;;;;;1.20;0.80;;;15.20;83.20;;;;;;4970920;28;20042;-17
2023/10/06 00:39:30;;;;;;;2.17;1.00;;;15.10;83.10;;;;;;4999564;28;20116;-17
2023/10/06 00:41:56;;;;;;;2.00;1.00;;;15.10;83.10;;;;;;4984312;28;20748;-17
2023/10/06 00:44:26;;;;;;;2.40;1.30;;;15.10;83.10;;;;;;4991869;28;20026;-17
2023/10/06 00:46:52;;;;;;;1.30;0.90;;;15.10;83.60;;;;;;5009504;28;20194;-17
2023/10/06 00:49:19;;;;;;;2.50;1.10;;;15.00;83.20;;;;;;4997907;28;20408;-17
2023/10/06 00:51:47;;;;;;;3.05;1.20;;;15.10;86.60;;;;;;5011209;28;20329;-17
2023/10/06 00:54:12;;;;;;;1.58;0.90;;;15.00;83.40;;;;;;4987039;28;20045;-17
2023/10/06 00:56:38;;;;;;;2.73;1.10;;;14.90;83.30;;;;;;4989631;28;20034;-17
2023/10/06 00:59:05;;;;;;;1.70;0.90;;;14.90;83.60;;;;;;4966437;28;20357;-17
2023/10/06 01:01:33;;;;;;;1.60;0.95;;;14.90;83.60;;;;;;4998679;28;20030;-17
2023/10/06 01:06:33;;;;;;;3.37;1.03;;;14.90;83.70;;;;;;5009556;28;20044;-17
2023/10/06 01:09:14;;;;;;;2.13;1.10;;;14.80;83.70;;;;;;4990367;28;20430;-17
2023/10/06 01:11:43;;;;;;;1.95;1.15;;;14.80;83.80;;;;;;4974560;28;20037;-17
2023/10/06 01:14:09;;;;;;;1.92;0.95;;;14.80;83.80;;;;;;4993910;28;20125;-17
2023/10/06 01:16:35;;;;;;;1.27;0.98;;;14.80;83.90;;;;;;4990744;28;20038;-17
2023/10/06 01:22:22;;;;;;;2.08;1.20;;;14.80;84.00;;;;;;4955007;28;20898;-17
2023/10/06 01:24:48;;;;;;;1.70;1.08;;;14.80;84.00;;;;;;5003775;28;20092;-17
2023/10/06 01:27:14;;;;;;;1.27;0.77;;;14.70;84.00;;;;;;4974944;28;20398;-17
2023/10/06 01:29:42;;;;;;;1.88;0.90;;;14.70;84.00;;;;;;4991979;28;20038;-17
2023/10/06 01:32:08;;;;;;;2.00;0.80;;;14.70;84.10;;;;;;4997246;28;20104;-17
2023/10/06 01:34:38;;;;;;;1.30;0.90;;;14.70;84.10;;;;;;5005691;28;20021;-17
2023/10/06 01:37:05;;;;;;;1.77;0.82;;;14.70;84.30;;;;;;4993032;28;20083;-16
2023/10/06 01:39:36;;;;;;;1.83;1.10;;;13.30;87.30;;;;;;5008235;28;20356;-17
2023/10/06 01:42:16;;;;;;;1.77;1.00;;;14.70;84.30;;;;;;4978405;28;20069;-16
2023/10/06 01:44:42;;;;;;;1.55;0.93;;;14.70;84.70;;;;;;4954569;28;20033;-17
2023/10/06 01:47:07;;;;;;;1.60;1.20;;;14.60;84.30;;;;;;5009828;28;20022;-16
2023/10/06 01:49:33;;;;;;;2.10;1.00;;;14.70;84.50;;;;;;4986367;28;20414;-17
2023/10/06 01:52:02;;;;;;;2.47;1.10;;;14.70;84.50;;;;;;4984691;28;20099;-17
2023/10/06 01:54:34;;;;;;;1.67;0.90;;;14.60;84.50;;;;;;5009526;28;20049;-17
2023/10/06 01:57:10;;;;;;;2.22;1.02;;;14.60;84.50;;;;;;4996115;28;20055;-17
2023/10/06 01:59:36;;;;;;;2.05;0.90;;;14.60;84.60;;;;;;4990042;28;20459;-16
2023/10/06 02:02:02;;;;;;;1.92;1.00;;;14.60;84.60;;;;;;4965079;28;20115;-17
2023/10/06 02:04:52;;;;;;;1.70;1.00;;;14.60;84.70;;;;;;5011370;28;23810;-17
2023/10/06 02:07:15;;;;;;;2.33;1.00;;;14.60;84.70;;;;;;4981714;28;20150;-17
2023/10/06 02:09:40;;;;;;;2.15;1.10;;;14.60;84.60;;;;;;4981218;28;20033;-16
2023/10/06 02:12:06;;;;;;;2.10;1.20;;;14.60;84.80;;;;;;5002578;28;20029;-16
2023/10/06 02:14:32;;;;;;;3.13;1.30;;;14.60;84.90;;;;;;4977858;28;20462;-16
2023/10/06 02:17:04;;;;;;;1.87;1.00;;;14.60;84.90;;;;;;4993750;28;20036;-17
2023/10/06 02:19:32;;;;;;;1.90;1.00;;;14.60;85.00;;;;;;5006739;28;20446;-17
2023/10/06 02:21:59;;;;;;;2.42;1.00;;;14.60;85.00;;;;;;4976787;28;20029;-17
2023/10/06 02:24:24;;;;;;;1.75;0.90;;;14.70;85.00;;;;;;5007862;28;20159;-16
2023/10/06 02:26:57;;;;;;;2.93;1.10;;;14.60;84.90;;;;;;5008473;28;20091;-17
2023/10/06 02:29:23;;;;;;;2.10;0.90;;;14.60;85.00;;;;;;4964297;28;20751;-16
2023/10/06 02:31:53;;;;;;;1.60;1.00;;;14.60;85.00;;;;;;4980714;28;20502;-17
2023/10/06 02:34:29;;;;;;;1.73;1.00;;;14.60;85.30;;;;;;5005939;28;20156;-16
2023/10/06 02:37:00;;;;;;;2.05;1.00;;;14.60;85.00;;;;;;4976255;28;20119;-17
2023/10/06 02:39:33;;;;;;;2.27;0.93;;;14.60;85.10;;;;;;5006029;28;20029;-17
2023/10/06 02:42:01;;;;;;;1.73;0.93;;;14.70;85.10;;;;;;4993133;28;20033;-16
2023/10/06 02:44:29;;;;;;;2.72;0.93;;;14.70;85.20;;;;;;4977951;28;20434;-17
2023/10/06 02:46:59;;;;;;;2.83;1.02;;;14.60;85.10;;;;;;4981199;28;20025;-17
2023/10/06 02:50:17;;;;;;;2.30;1.10;;;14.60;85.20;;;;;;5007873;28;20538;-16
2023/10/06 02:52:29;;;;;;;1.70;0.90;;;14.60;85.20;;;;;;4985398;28;20258;-16
2023/10/06 02:55:18;;;;;;;1.67;1.00;;;14.60;85.30;;;;;;5009774;28;20156;-17
2023/10/06 02:57:50;;;;;;;1.05;0.80;;;14.60;86.00;;;;;;5010447;28;20924;-17
2023/10/06 03:03:02;;;;;;;1.90;1.00;;;14.70;85.40;;;;;;4984365;28;20307;-16
2023/10/06 03:05:39;;;;;;;1.70;0.77;;;14.60;85.30;;;;;;4964409;28;20066;-16
2023/10/06 03:08:09;;;;;;;1.75;1.10;;;14.60;85.30;;;;;;4994981;28;20450;-17
2023/10/06 03:10:44;;;;;;;1.23;0.93;;;14.60;85.30;;;;;;5007983;28;20501;-17
2023/10/06 03:13:14;;;;;;;1.88;0.95;;;14.60;85.80;;;;;;4982283;28;20387;-17
2023/10/06 03:15:46;;;;;;;1.88;1.02;;;14.60;85.30;;;;;;4996238;28;20029;-16
2023/10/06 03:18:16;;;;;;;2.30;0.90;;;14.60;85.30;;;;;;4993522;28;20689;-17
2023/10/06 03:23:32;;;;;;;2.10;1.00;;;14.50;85.40;;;;;;4981342;28;20025;-17
2023/10/06 03:25:58;;;;;;;2.17;1.00;;;14.50;85.30;;;;;;4991126;28;20029;-17
2023/10/06 03:28:36;;;;;;;1.58;0.93;;;14.50;85.40;;;;;;5007914;28;20557;-16
2023/10/06 03:31:09;;;;;;;1.60;0.97;;;14.50;85.50;;;;;;5002687;28;20536;-17
2023/10/06 03:33:35;;;;;;;1.30;1.00;;;14.40;85.40;;;;;;4975319;28;20041;-16
2023/10/06 03:36:01;;;;;;;1.52;0.95;;;14.40;85.50;;;;;;5009716;28;20584;-17
2023/10/06 03:38:27;;;;;;;2.87;0.97;;;14.40;85.50;;;;;;4999151;28;20021;-16
2023/10/06 03:46:10;;;;;;;1.52;0.98;;;14.30;85.50;;;;;;4985594;28;20034;-17
2023/10/06 03:48:38;;;;;;;1.65;1.00;;;14.30;85.60;;;;;;4990908;28;20441;-17
2023/10/06 03:51:05;;;;;;;1.83;1.00;;;14.30;85.60;;;;;;4981320;28;20041;-17
2023/10/06 03:53:32;;;;;;;1.63;0.85;;;14.30;85.60;;;;;;4989914;28;20025;-17
2023/10/06 03:55:59;;;;;;;1.45;0.90;;;14.20;85.60;;;;;;4996896;28;20045;-17
2023/10/06 03:58:28;;;;;;;2.13;1.00;;;14.30;85.80;;;;;;4995094;28;20469;-16
2023/10/06 04:00:54;;;;;;;1.63;0.90;;;14.20;85.80;;;;;;4964759;28;22894;-16
2023/10/06 04:03:21;;;;;;;1.93;0.80;;;14.20;85.90;;;;;;4942365;28;20029;-16
2023/10/06 04:05:51;;;;;;;2.90;0.98;;;14.20;85.90;;;;;;5007830;28;20157;-17
2023/10/06 04:08:21;;;;;;;1.45;0.82;;;14.20;86.30;;;;;;5007882;28;20068;-17
2023/10/06 04:10:50;;;;;;;1.73;0.75;;;14.20;86.10;;;;;;4965885;28;20025;-17
2023/10/06 04:13:20;;;;;;;1.25;0.80;;;14.20;86.10;;;;;;4976780;28;20660;-17
2023/10/06 04:15:49;;;;;;;1.90;0.80;;;14.20;86.10;;;;;;4988131;28;20037;-17
2023/10/06 04:18:17;;;;;;;1.63;0.75;;;14.20;86.20;;;;;;4975192;28;20274;-17
2023/10/06 04:20:44;;;;;;;1.75;0.80;;;14.30;86.30;;;;;;5008782;28;20534;-17
2023/10/06 04:23:13;;;;;;;2.28;1.00;;;14.20;86.40;;;;;;4990513;28;20239;-17
2023/10/06 04:25:40;;;;;;;1.55;0.90;;;14.30;86.60;;;;;;4989473;28;20034;-17
2023/10/06 04:28:13;;;;;;;2.33;0.90;;;14.30;86.50;;;;;;4997115;28;20045;-17
2023/10/06 04:30:41;;;;;;;1.90;0.88;;;14.30;86.60;;;;;;5011317;28;20037;-17
2023/10/06 04:33:09;;;;;;;1.33;0.70;;;14.30;86.40;;;;;;4980260;28;20188;-17
2023/10/06 04:35:39;;;;;;;1.23;0.65;;;14.30;86.40;;;;;;5000154;28;20033;-17
2023/10/06 04:38:05;;;;;;;1.52;0.93;;;14.30;86.60;;;;;;5013781;28;20033;-17
2023/10/06 04:40:32;;;;;;;1.97;0.80;;;14.30;86.60;;;;;;4995561;28;20052;-17
2023/10/06 04:42:59;;;;;;;1.73;0.80;;;14.30;86.60;;;;;;4995044;28;20030;-17
2023/10/06 04:45:25;;;;;;;1.63;0.95;;;14.30;86.60;;;;;;5012339;28;20037;-17
2023/10/06 04:47:55;;;;;;;1.73;0.82;;;14.90;90.70;;;;;;4984897;28;20033;-17
2023/10/06 04:50:22;;;;;;;2.33;1.40;;;14.40;86.60;;;;;;4977854;28;20029;-18
2023/10/06 04:52:48;;;;;;;1.73;0.90;;;14.40;86.60;;;;;;5006477;28;20034;-17
2023/10/06 04:55:14;;;;;;;1.73;0.80;;;14.40;86.60;;;;;;5007747;28;20056;-17
2023/10/06 04:57:43;;;;;;;1.85;1.20;;;13.90;90.30;;;;;;5010553;28;20040;-17
2023/10/06 05:00:19;;;;;;;1.48;0.90;;;14.40;86.40;;;;;;4998109;28;20048;-17
2023/10/06 05:02:50;;;;;;;1.90;1.02;;;14.40;86.40;;;;;;4967804;28;20318;-17
2023/10/06 05:05:22;;;;;;;1.93;0.87;;;14.40;86.60;;;;;;4986140;28;20398;-17
2023/10/06 05:07:49;;;;;;;1.65;1.00;;;14.40;86.40;;;;;;4997393;28;20060;-16
2023/10/06 05:10:18;;;;;;;1.98;0.98;;;14.30;86.30;;;;;;4989871;28;20516;-16
2023/10/06 05:12:44;;;;;;;1.67;0.90;;;14.30;86.30;;;;;;4991565;28;20025;-16
2023/10/06 05:15:17;;;;;;;2.00;1.00;;;14.40;86.30;;;;;;4985614;28;20404;-16
2023/10/06 05:17:43;;;;;;;2.07;0.93;;;14.30;86.20;;;;;;4992022;28;20046;-17
2023/10/06 05:20:19;;;;;;;2.00;0.95;;;13.80;90.00;;;;;;5000825;28;20025;-16
2023/10/06 05:22:47;;;;;;;2.35;1.00;;;14.20;86.30;;;;;;5000804;28;20041;-16
2023/10/06 05:25:13;;;;;;;1.58;0.90;;;14.20;86.40;;;;;;4986612;28;20104;-17
2023/10/06 05:27:39;;;;;;;2.27;1.00;;;14.20;86.30;;;;;;5009532;28;20526;-17
2023/10/06 05:30:06;;;;;;;1.50;1.00;;;14.20;86.40;;;;;;4994015;28;20384;-17
2023/10/06 05:32:32;;;;;;;2.33;1.00;;;14.20;86.40;;;;;;5007545;28;20262;-17
2023/10/06 05:34:58;;;;;;;2.10;0.90;;;14.20;86.40;;;;;;4999301;28;20422;-16
2023/10/06 05:37:24;;;;;;;1.88;1.00;;;14.20;86.50;;;;;;4974296;28;20037;-16
2023/10/06 05:39:50;;;;;;;2.80;1.10;;;14.20;86.40;;;;;;4983163;28;20442;-16
2023/10/06 05:42:15;;;;;;;1.52;0.85;;;14.10;86.40;;;;;;5008060;28;20094;-17
2023/10/06 05:44:41;;;;;;;2.50;1.20;;;14.10;86.40;;;;;;4998453;28;20175;-16
2023/10/06 05:47:09;;;;;;;2.03;0.93;;;14.10;86.40;;;;;;5009735;28;20041;-16
2023/10/06 05:49:38;;;;;;;1.27;0.80;;;13.80;90.00;;;;;;4994643;28;20386;-16
2023/10/06 05:52:10;;;;;;;2.00;1.10;;;14.00;86.50;;;;;;4984274;28;20486;-17
2023/10/06 05:54:37;;;;;;;1.93;1.00;;;14.00;86.40;;;;;;4985304;28;20049;-16
2023/10/06 05:57:04;;;;;;;2.30;0.82;;;14.10;86.60;;;;;;5011530;28;20072;-16
2023/10/06 05:59:33;;;;;;;2.28;1.00;;;14.00;86.50;;;;;;4989433;28;20120;-16
2023/10/06 06:02:00;;;;;;;1.90;0.90;;;14.00;86.60;;;;;;4982583;28;20013;-16
2023/10/06 06:04:34;;;;;;;2.15;1.15;;;14.00;86.80;;;;;;4988791;28;20330;-16
2023/10/06 06:07:08;;;;;;;1.80;1.10;;;14.00;86.90;;;;;;4996538;28;20427;-16
2023/10/06 06:09:33;;;;;;;2.00;0.80;;;14.00;86.80;;;;;;4956305;28;24112;-16
2023/10/06 06:12:00;;;;;;;1.30;0.85;;;14.00;86.80;;;;;;5007749;28;20032;-16
2023/10/06 06:14:26;;;;;;;2.10;1.00;;;14.00;87.00;;;;;;4988755;28;20060;-17
2023/10/06 06:16:52;;;;;;;2.83;1.00;;;14.00;87.10;;;;;;4993338;28;20026;-16
2023/10/06 06:19:18;;;;;;;1.98;1.02;;;14.00;87.10;;;;;;4976759;28;20055;-17
2023/10/06 06:21:46;;;;;;;2.53;1.40;;;14.00;87.20;;;;;;4999386;28;20041;-16
2023/10/06 06:24:12;;;;;;;2.72;1.20;;;14.00;87.20;;;;;;4987410;28;20113;-17
2023/10/06 06:26:38;;;;;;;2.43;1.20;;;14.00;87.40;;;;;;4993410;28;20052;-17
2023/10/06 06:29:05;;;;;;;1.80;1.10;;;14.10;87.60;;;;;;5005499;28;20037;-17
2023/10/06 06:31:34;;;;;;;1.20;0.80;;;14.10;87.70;;;;;;4974058;28;20639;-16
2023/10/06 06:34:06;;;;;;;2.03;0.87;;;14.10;87.70;;;;;;5006476;28;20030;-16
2023/10/06 06:36:32;;;;;;;1.98;1.10;;;14.10;88.00;;;;;;4984151;28;20057;-16
2023/10/06 06:38:58;;;;;;;2.97;0.95;;;14.20;88.00;;;;;;5001093;28;20030;-17
2023/10/06 06:41:24;;;;;;;2.28;1.00;;;14.20;88.00;;;;;;4981627;28;20212;-17
2023/10/06 06:43:57;;;;;;;2.70;1.20;;;14.30;88.20;;;;;;5004815;28;20018;-17
2023/10/06 06:46:26;;;;;;;1.90;0.87;;;14.30;88.20;;;;;;5006196;28;20067;-17
2023/10/06 06:48:53;;;;;;;2.00;1.40;;;14.40;88.30;;;;;;4993965;28;20124;-17
2023/10/06 06:51:20;;;;;;;1.85;1.00;;;14.40;88.40;;;;;;4982735;28;20061;-17
2023/10/06 06:53:47;;;;;;;1.50;1.00;;;14.50;88.40;;;;;;5009719;28;20527;-17
2023/10/06 06:56:12;;;;;;;2.15;0.95;;;14.60;88.60;;;;;;4991131;28;20025;-17
2023/10/06 06:58:38;;;;;;;2.03;0.97;;;14.70;88.60;;;;;;4999348;28;20033;-17
2023/10/06 07:01:07;;;;;;;3.35;1.20;;;14.70;88.70;;;;;;4991183;28;20041;-17
2023/10/06 07:03:33;;;;;;;2.92;1.13;;;14.80;88.80;;;;;;4995567;28;20017;-18
2023/10/06 07:05:59;;;;;;;2.08;1.15;;;14.80;88.80;;;;;;4958844;28;20038;-17
2023/10/06 07:08:25;;;;;;;3.83;1.10;;;14.90;88.90;;;;;;4981354;28;20107;-17
2023/10/06 07:10:54;;;;;;;2.13;1.10;;;15.00;89.00;;;;;;4993989;28;20041;-17
2023/10/06 07:13:23;;;;;;;2.65;1.20;;;15.10;88.90;;;;;;4970018;28;20490;-17
2023/10/06 07:15:53;;;;;;;2.93;1.40;;;15.20;88.80;;;;;;5003076;28;20029;-17
2023/10/06 07:18:19;;;;;;;1.83;1.02;;;15.20;88.80;;;;;;5000626;28;20493;-17
2023/10/06 07:20:45;;;;;;;2.30;1.30;;;15.30;89.00;;;;;;4980864;28;20553;-17
2023/10/06 07:23:11;;;;;;;1.80;1.10;;;15.40;89.80;;;;;;4961099;28;20129;-17
2023/10/06 07:25:37;;;;;;;2.47;1.20;;;15.60;90.40;;;;;;4989324;28;20295;-16
2023/10/06 07:28:05;;;;;;;1.65;1.05;;;15.80;91.00;;;;;;4983271;28;20060;-16
2023/10/06 07:30:37;;;;;;;3.03;1.20;;;16.10;91.50;;;;;;5000979;28;20366;-16
2023/10/06 07:33:03;;;;;;;1.77;1.17;;;16.50;91.90;;;;;;4997960;28;20245;-16
2023/10/06 07:35:36;;;;;;;1.60;0.97;;;17.00;92.10;;;;;;4980957;28;20240;-16
2023/10/06 07:38:03;;;;;;;3.15;1.30;;;17.50;92.20;;;;;;5008363;28;20514;-16
2023/10/06 07:40:28;;;;;;;3.60;1.70;;;18.00;92.30;;;;;;4991859;28;20360;-16
2023/10/06 07:42:55;;;;;;;2.55;1.17;;;18.40;92.00;;;;;;4993869;28;20414;-16
2023/10/06 07:45:21;;;;;;;3.70;1.27;;;18.90;92.10;;;;;;4978336;28;20033;-17
2023/10/06 07:47:47;;;;;;;2.80;1.47;;;20.30;92.20;;;;;;4967203;28;20076;-16
2023/10/06 07:50:14;;;;;;;3.90;1.45;;;19.60;91.50;;;;;;4997536;28;20112;-16
2023/10/06 07:52:41;;;;;;;3.25;1.50;;;19.90;90.70;;;;;;5011749;28;20033;-16
2023/10/06 07:55:09;;;;;;;3.30;1.52;;;20.10;90.10;;;;;;4999956;28;20041;-17
2023/10/06 07:57:48;;;;;;;2.37;1.40;;;20.30;89.40;;;;;;4966230;28;20301;-16
2023/10/06 08:00:28;;;;;;;2.45;1.35;;;20.40;87.20;;;;;;4966855;28;20034;-16
2023/10/06 08:02:58;;;;;;;4.25;1.50;;;20.40;87.50;;;;;;4986409;28;20040;-16
2023/10/06 08:05:24;;;;;;;3.65;1.50;;;20.40;86.80;;;;;;4985032;28;20033;-16
2023/10/06 08:07:50;;;;;;;3.40;1.38;;;20.30;86.20;;;;;;5009124;28;20296;-16
2023/10/06 08:10:18;;;;;;;2.80;1.43;;;20.20;85.90;;;;;;4983616;28;20057;-16
2023/10/06 08:12:50;;;;;;;3.58;1.38;;;20.20;85.90;;;;;;4999290;28;20037;-16
2023/10/06 08:15:21;;;;;;;3.13;1.50;;;20.10;85.70;;;;;;4996936;28;20037;-17
2023/10/06 08:17:55;;;;;;;2.42;1.33;;;20.10;85.80;;;;;;4980911;28;20037;-16
2023/10/06 08:20:22;;;;;;;3.65;1.55;;;20.00;85.60;;;;;;4983799;28;20445;-16
2023/10/06 08:22:51;;;;;;;2.40;1.30;;;20.00;85.70;;;;;;5007375;28;20033;-19
2023/10/06 08:25:18;;;;;;;2.65;1.30;;;19.90;86.40;;;;;;5001097;28;20390;-16
2023/10/06 08:27:46;;;;;;;1.88;1.17;;;19.90;85.60;;;;;;4986601;28;20125;-16
2023/10/06 08:30:17;;;;;;;3.38;1.52;;;19.90;85.60;;;;;;4987197;28;20112;-16
2023/10/06 08:32:52;;;;;;;2.10;1.33;;;19.80;85.40;;;;;;4995585;28;20041;-16
2023/10/06 08:35:18;;;;;;;2.47;1.37;;;19.80;84.80;;;;;;4992224;28;20029;-17
2023/10/06 08:37:45;;;;;;;3.17;1.50;;;19.80;85.40;;;;;;4985173;28;20064;-16
2023/10/06 08:40:16;;;;;;;3.38;1.52;;;19.80;85.50;;;;;;4991717;28;20029;-16
2023/10/06 08:42:49;;;;;;;2.95;1.40;;;19.80;85.50;;;;;;5007623;28;20026;-16
2023/10/06 08:45:22;;;;;;;3.10;1.38;;;19.80;85.00;;;;;;4953685;28;20755;-16
2023/10/06 08:47:52;;;;;;;2.60;1.13;;;19.50;86.70;;;;;;4969975;28;20108;-16
2023/10/06 08:50:22;;;;;;;4.75;1.50;;;19.80;85.20;;;;;;4993430;28;20312;-16
2023/10/06 08:52:52;;;;;;;3.22;1.52;;;19.80;85.10;;;;;;4973651;28;20021;-16
2023/10/06 08:55:22;;;;;;;3.25;1.50;;;19.70;84.80;;;;;;4997670;28;20252;-16
2023/10/06 08:57:50;;;;;;;2.70;1.30;;;19.90;84.50;;;;;;4983013;28;20049;-17
2023/10/06 09:00:24;;;;;;;2.60;1.40;;;19.80;84.90;;;;;;4991336;28;20710;-16
2023/10/06 09:02:52;;;;;;;2.22;1.30;;;19.80;84.70;;;;;;5000177;28;20026;-16
2023/10/06 09:05:18;;;;;;;3.67;1.50;;;19.80;84.60;;;;;;4978565;28;20133;-16
2023/10/06 09:08:05;;;;;;;2.65;1.33;;;19.80;84.70;;;;;;4981058;28;20033;-16
2023/10/06 09:10:42;;;;;;;4.30;1.23;;;19.80;84.30;;;;;;4996474;28;20065;-16
2023/10/06 09:13:10;;;;;;;3.30;1.30;;;19.90;84.70;;;;;;4979977;28;20026;-16
2023/10/06 09:15:42;;;;;;;2.72;1.40;;;19.90;85.90;;;;;;4995242;28;20492;-16
2023/10/06 09:18:19;;;;;;;2.63;1.23;;;20.10;86.80;;;;;;4997607;28;20256;-16
2023/10/06 09:20:47;;;;;;;3.20;1.40;;;20.30;86.60;;;;;;4988370;28;20473;-17
2023/10/06 09:23:32;;;;;;;2.80;1.35;;;20.60;88.50;;;;;;4980264;28;20221;-17
2023/10/06 09:25:59;;;;;;;3.00;1.20;;;20.90;87.80;;;;;;4975068;28;20037;-17
2023/10/06 09:28:26;;;;;;;2.80;1.30;;;21.30;89.80;;;;;;4974540;28;20029;-17
2023/10/06 09:30:57;;;;;;;2.40;1.20;;;21.70;90.00;;;;;;4973436;28;20050;-16
2023/10/06 09:33:27;;;;;;;4.40;1.50;;;22.00;88.60;;;;;;5007615;28;20840;-16
2023/10/06 09:36:02;;;;;;;3.55;1.23;;;22.40;87.70;;;;;;4999521;28;20072;-17
2023/10/06 09:38:28;;;;;;;2.97;1.30;;;22.60;86.00;;;;;;4997178;28;20489;-16
2023/10/06 09:40:54;;;;;;;4.15;1.40;;;22.80;87.10;;;;;;4973505;28;20041;-17
2023/10/06 09:43:22;;;;;;;2.40;1.27;;;23.00;86.10;;;;;;4976232;28;20029;-16
2023/10/06 09:45:51;;;;;;;3.33;1.30;;;23.20;85.50;;;;;;4962926;28;20391;-17
2023/10/06 09:48:22;;;;;;;2.70;1.60;;;23.30;84.30;;;;;;5003543;28;20565;-17
2023/10/06 09:50:50;;;;;;;3.83;1.33;;;23.30;83.80;;;;;;4998684;28;20021;-17
2023/10/06 09:53:19;;;;;;;2.90;1.45;;;23.40;83.80;;;;;;4979361;28;20061;-16
2023/10/06 09:55:52;;;;;;;2.75;1.20;;;23.50;83.30;;;;;;4983211;28;20394;-17
2023/10/06 09:58:18;;;;;;;3.42;1.60;;;23.50;82.70;;;;;;4984240;28;20371;-16
2023/10/06 10:00:45;;;;;;;3.67;1.57;;;23.40;81.70;;;;;;5011190;28;20307;-16
2023/10/06 10:03:15;;;;;;;4.13;1.42;;;23.40;81.00;;;;;;4974125;28;20986;-17
2023/10/06 10:05:43;;;;;;;2.75;1.27;;;23.40;80.50;;;;;;4960445;28;20339;-17
2023/10/06 10:08:10;;;;;;;3.00;1.55;;;23.20;80.30;;;;;;4991779;28;20323;-16
2023/10/06 10:10:40;;;;;;;2.90;1.20;;;23.10;80.20;;;;;;4994034;28;20045;-16
2023/10/06 10:13:31;;;;;;;3.73;1.40;;;23.00;79.50;;;;;;4987717;28;20072;-16
2023/10/06 10:16:12;;;;;;;3.80;1.40;;;22.90;79.00;;;;;;4990697;28;20033;-17
2023/10/06 10:18:58;;;;;;;4.10;1.55;;;22.90;78.60;;;;;;4992312;28;20041;-17
2023/10/06 10:21:25;;;;;;;2.72;1.50;;;22.80;78.80;;;;;;4981043;28;20028;-16
2023/10/06 10:23:51;;;;;;;2.63;1.40;;;22.70;79.80;;;;;;4999157;28;20040;-17
2023/10/06 10:26:25;;;;;;;3.43;1.40;;;22.60;79.90;;;;;;4993793;28;20025;-16
2023/10/06 10:29:13;;;;;;;3.88;1.40;;;22.60;78.90;;;;;;4999384;28;20687;-17
2023/10/06 10:31:41;;;;;;;4.65;1.60;;;22.50;78.10;;;;;;5008616;28;20045;-16
2023/10/06 10:34:08;;;;;;;3.75;1.52;;;22.40;79.10;;;;;;4975741;28;20248;-16
2023/10/06 10:36:34;;;;;;;4.28;1.20;;;22.40;79.30;;;;;;4979847;28;20093;-16
2023/10/06 10:39:19;;;;;;;3.37;1.60;;;22.30;79.50;;;;;;4989094;28;20025;-16
2023/10/06 10:41:46;;;;;;;3.83;1.50;;;22.30;79.10;;;;;;5001422;28;20092;-16
2023/10/06 10:44:14;;;;;;;4.50;1.55;;;22.30;79.90;;;;;;5003562;28;20100;-16
2023/10/06 10:46:42;;;;;;;2.63;1.08;;;22.30;80.10;;;;;;4996173;28;20357;-16
2023/10/06 10:49:13;;;;;;;3.35;1.40;;;22.40;80.90;;;;;;4977591;28;20075;-17
2023/10/06 10:52:09;;;;;;;3.73;1.30;;;22.50;81.20;;;;;;4985819;28;20064;-16
2023/10/06 10:54:40;;;;;;;1.83;1.20;;;22.70;80.60;;;;;;4994926;28;20041;-16
2023/10/06 10:57:14;;;;;;;3.40;1.40;;;22.90;81.50;;;;;;4977937;28;20659;-17
2023/10/06 11:00:00;;;;;;;4.43;1.50;;;23.00;81.30;;;;;;4967592;28;20576;-17
2023/10/06 11:03:01;;;;;;;3.97;1.38;;;23.20;79.40;;;;;;5017574;28;20021;-17
2023/10/06 11:05:27;;;;;;;3.07;1.37;;;23.30;79.10;;;;;;4977374;28;20017;-17
2023/10/06 11:08:00;;;;;;;2.58;1.30;;;23.40;80.00;;;;;;5009378;28;20022;-17
2023/10/06 11:10:26;;;;;;;3.25;1.40;;;23.40;78.90;;;;;;5018031;28;20029;-17
2023/10/06 11:13:19;;;;;;;3.25;1.33;;;23.50;79.70;;;;;;4994795;28;20037;-17
2023/10/06 11:15:45;;;;;;;3.90;1.60;;;23.50;77.60;;;;;;5009258;28;20030;-17
2023/10/06 11:18:13;;;;;;;5.55;1.60;;;23.60;79.70;;;;;;4999943;28;20045;-16
2023/10/06 11:20:42;;;;;;;2.88;1.20;;;23.70;79.40;;;;;;4983642;28;20358;-17
2023/10/06 11:23:08;;;;;;;2.97;1.30;;;23.80;79.30;;;;;;4994601;28;20679;-16
2023/10/06 11:25:38;;;;;;;3.28;1.40;;;23.80;78.80;;;;;;4998539;28;20026;-17
2023/10/06 11:28:08;;;;;;;2.97;1.50;;;23.90;78.40;;;;;;4997152;28;20025;-16
2023/10/06 11:30:42;;;;;;;3.33;1.42;;;23.90;77.70;;;;;;5019116;28;20027;-16
2023/10/06 11:33:10;;;;;;;2.72;1.25;;;24.00;77.60;;;;;;4991964;28;20858;-17
2023/10/06 11:35:40;;;;;;;3.38;1.40;;;24.00;78.10;;;;;;4998319;28;20034;-16
2023/10/06 11:38:10;;;;;;;3.53;1.30;;;24.00;77.70;;;;;;4990145;28;20036;-17
2023/10/06 11:40:36;;;;;;;2.40;1.27;;;24.20;78.20;;;;;;5001182;28;20689;-18
2023/10/06 11:43:22;;;;;;;2.65;1.33;;;24.20;78.00;;;;;;4960950;28;20033;-17
2023/10/06 11:46:05;;;;;;;2.67;1.20;;;24.30;75.90;;;;;;5015860;28;20077;-17
2023/10/06 11:48:35;;;;;;;2.05;1.30;;;24.40;76.30;;;;;;4988658;28;20033;-17
2023/10/06 11:51:06;;;;;;;3.33;1.25;;;24.50;78.10;;;;;;4977446;28;20033;-17
2023/10/06 11:53:32;;;;;;;2.30;1.30;;;24.70;78.30;;;;;;4984238;28;20402;-17
2023/10/06 11:56:15;;;;;;;4.35;1.30;;;24.90;79.40;;;;;;4983443;28;20390;-17
2023/10/06 11:58:42;;;;;;;2.78;1.20;;;25.20;76.00;;;;;;4996458;28;20046;-17
2023/10/06 12:01:36;;;;;;;2.13;1.25;;;25.40;77.70;;;;;;5011663;28;20026;-17
2023/10/06 12:04:06;;;;;;;2.63;1.40;;;25.60;75.00;;;;;;5002078;28;20064;-18
2023/10/06 12:06:38;;;;;;;2.77;1.10;;;25.80;77.10;;;;;;4997134;28;20503;-17
2023/10/06 12:09:08;;;;;;;3.08;1.35;;;25.90;75.90;;;;;;4981771;28;20390;-16
2023/10/06 12:11:33;;;;;;;2.70;1.38;;;26.10;77.20;;;;;;4988096;28;20029;-17
2023/10/06 12:13:59;;;;;;;4.00;1.55;;;26.30;76.80;;;;;;4994032;28;20577;-16
2023/10/06 12:16:25;;;;;;;3.03;1.43;;;26.40;75.40;;;;;;4997983;28;20041;-16
2023/10/06 12:18:51;;;;;;;3.08;1.30;;;26.60;75.10;;;;;;4969063;28;20053;-16
2023/10/06 12:21:17;;;;;;;3.00;1.30;;;26.60;74.20;;;;;;4998548;28;20048;-16
2023/10/06 12:23:47;;;;;;;3.80;1.33;;;26.60;73.40;;;;;;4998751;28;20483;-16
2023/10/06 12:26:13;;;;;;;3.40;1.33;;;26.60;72.50;;;;;;5000445;28;20476;-16
2023/10/06 12:28:38;;;;;;;4.18;1.50;;;26.50;72.50;;;;;;4991752;28;20036;-16
2023/10/06 12:31:10;;;;;;;3.60;1.50;;;26.50;72.60;;;;;;5008734;28;20033;-17
2023/10/06 12:33:38;;;;;;;2.50;1.20;;;26.50;72.60;;;;;;5001661;28;20037;-16
2023/10/06 12:36:08;;;;;;;3.10;1.20;;;26.60;73.40;;;;;;4998756;28;20028;-16
2023/10/06 12:38:35;;;;;;;3.47;1.50;;;26.80;73.60;;;;;;4990263;28;20087;-17
2023/10/06 12:41:00;;;;;;;2.00;1.20;;;27.00;74.00;;;;;;5010641;28;20052;-17
2023/10/06 12:43:26;;;;;;;2.45;1.33;;;27.20;74.70;;;;;;4982476;28;20100;-16
2023/10/06 12:45:52;;;;;;;2.67;1.40;;;27.50;74.10;;;;;;4999479;28;20275;-16
2023/10/06 12:48:20;;;;;;;2.60;1.23;;;27.70;73.30;;;;;;5011355;28;20025;-17
2023/10/06 12:50:47;;;;;;;2.67;1.23;;;27.90;71.70;;;;;;4999454;28;20026;-16
2023/10/06 12:53:13;;;;;;;3.25;1.60;;;28.20;71.50;;;;;;4964355;28;20030;-16
2023/10/06 12:55:41;;;;;;;2.37;1.30;;;28.10;70.80;;;;;;4976692;28;20061;-17
2023/10/06 12:58:11;;;;;;;2.75;1.25;;;28.20;71.00;;;;;;4979577;28;20034;-17
2023/10/06 13:00:40;;;;;;;3.10;1.48;;;28.30;71.10;;;;;;4979814;28;20030;-17
2023/10/06 13:03:15;;;;;;;2.88;1.40;;;28.50;69.50;;;;;;5004626;28;20034;-17
2023/10/06 13:05:47;;;;;;;2.67;1.50;;;28.60;70.00;;;;;;4978930;28;20481;-17
2023/10/06 13:08:20;;;;;;;3.20;1.60;;;28.70;68.80;;;;;;4992414;28;20472;-17
2023/10/06 13:10:47;;;;;;;2.40;1.58;;;28.70;68.10;;;;;;4960463;28;20229;-16
2023/10/06 13:13:16;;;;;;;2.80;1.40;;;28.70;67.10;;;;;;4965346;28;20040;-16
2023/10/06 13:15:45;;;;;;;4.07;1.58;;;28.70;67.40;;;;;;4976251;28;20531;-16
2023/10/06 13:18:11;;;;;;;2.58;1.48;;;28.70;67.10;;;;;;4981745;28;20036;-17
2023/10/06 13:20:38;;;;;;;2.47;1.37;;;28.60;66.80;;;;;;4986039;28;20105;-17